Time;durP1;ratioP1;P1;durP2;ratioP2;P2;SDS_P1;SDS_P2;PMS_P1;PMS_P2;Temp;Humidity;BMP_temperature;BMP_pressure;BME280_temperature;BME280_humidity;BME280_pressure;Samples;Min_cycle;Max_cycle;Signal;HPM_P1;HPM_P2
2021/01/27 00:02:06;;;;;;;13.75;4.68;;;;;;;5.02;63.22;101185.97;5034109;28;20504;-72
2021/01/27 00:04:34;;;;;;;11.38;5.35;;;;;;;5.16;62.78;101195.31;5035753;28;20056;-71
2021/01/27 00:07:03;;;;;;;11.70;4.82;;;;;;;5.03;63.34;101193.88;5035812;28;20058;-75
2021/01/27 00:09:31;;;;;;;8.80;4.60;;;;;;;5.13;63.29;101198.56;5036544;28;20054;-71
2021/01/27 00:12:04;;;;;;;12.75;5.30;;;;;;;5.23;62.79;101204.88;5036282;28;20362;-71
2021/01/27 00:14:31;;;;;;;11.50;4.50;;;;;;;4.99;63.73;101211.03;5035826;28;20053;-70
2021/01/27 00:16:58;;;;;;;10.75;4.95;;;;;;;4.94;64.54;101211.00;5033566;28;20049;-71
2021/01/27 00:19:26;;;;;;;10.73;4.78;;;;;;;4.93;64.80;101214.84;5035516;28;20408;-69
2021/01/27 00:22:00;;;;;;;11.75;3.97;;;;;;;4.87;64.72;101205.81;5035392;28;20045;-70
2021/01/27 00:24:40;;;;;;;9.30;4.95;;;;;;;4.95;65.24;101201.75;5035903;28;20049;-71
2021/01/27 00:27:11;;;;;;;8.88;4.45;;;;;;;4.94;66.10;101187.28;5030123;28;20060;-70
2021/01/27 00:29:43;;;;;;;11.05;4.82;;;;;;;5.08;66.97;101182.16;5035659;28;20056;-72
2021/01/27 00:32:16;;;;;;;10.70;4.65;;;;;;;5.03;67.44;101182.97;5035458;28;20428;-69
2021/01/27 00:34:44;;;;;;;9.80;4.72;;;;;;;4.92;68.33;101174.97;5034576;28;20392;-70
2021/01/27 00:37:12;;;;;;;9.50;4.70;;;;;;;4.84;68.76;101172.75;5035743;28;20053;-70
2021/01/27 00:39:40;;;;;;;8.70;4.40;;;;;;;5.03;67.67;101190.31;5001831;28;20049;-70
2021/01/27 00:42:34;;;;;;;10.50;4.90;;;;;;;4.76;68.65;101184.19;5033970;28;20051;-69
2021/01/27 00:45:04;;;;;;;9.70;4.40;;;;;;;4.86;68.36;101189.69;5031763;28;20427;-71
2021/01/27 00:47:35;;;;;;;12.80;5.05;;;;;;;4.82;68.88;101181.22;5034037;28;20061;-71
2021/01/27 00:50:05;;;;;;;9.40;4.63;;;;;;;5.04;68.18;101170.94;5017360;28;20064;-70
2021/01/27 00:52:32;;;;;;;11.53;5.03;;;;;;;4.75;69.38;101169.72;5035724;28;20068;-71
2021/01/27 00:55:14;;;;;;;11.70;5.32;;;;;;;4.74;69.42;101170.81;5023265;28;20060;-71
2021/01/27 00:57:41;;;;;;;11.25;4.93;;;;;;;4.82;69.50;101158.56;5054076;28;20492;-71
2021/01/27 01:00:13;;;;;;;11.02;5.15;;;;;;;4.82;68.94;101161.28;5036127;28;20064;-71
2021/01/27 01:02:40;;;;;;;9.25;4.95;;;;;;;4.67;68.82;101151.13;5037162;28;20049;-72
2021/01/27 01:05:10;;;;;;;10.40;4.80;;;;;;;4.78;68.81;101152.00;5054776;28;20045;-72
2021/01/27 01:07:37;;;;;;;9.55;4.75;;;;;;;4.74;69.31;101145.41;5036581;28;20056;-71
2021/01/27 01:10:05;;;;;;;10.13;4.68;;;;;;;4.66;68.82;101149.47;5054237;28;20049;-71
2021/01/27 01:12:33;;;;;;;12.23;4.80;;;;;;;4.63;69.55;101154.63;5037438;28;20060;-71
2021/01/27 01:15:09;;;;;;;12.13;4.43;;;;;;;4.57;70.51;101151.88;5038015;28;20060;-69
2021/01/27 01:17:39;;;;;;;11.65;4.75;;;;;;;4.54;70.59;101144.22;5053859;28;20507;-69
2021/01/27 01:20:19;;;;;;;8.05;4.43;;;;;;;4.57;70.65;101143.69;5054435;28;20048;-72
2021/01/27 01:22:49;;;;;;;9.07;4.55;;;;;;;4.61;71.15;101135.78;5054462;28;20044;-71
2021/01/27 01:25:18;;;;;;;8.98;4.40;;;;;;;4.65;71.30;101136.09;5049495;28;20060;-70
2021/01/27 01:27:57;;;;;;;10.75;4.57;;;;;;;4.64;71.14;101129.00;5046434;28;20041;-70
2021/01/27 01:30:30;;;;;;;8.07;4.47;;;;;;;4.62;71.78;101125.72;5051178;28;20041;-74
2021/01/27 01:33:00;;;;;;;10.75;4.90;;;;;;;4.72;72.06;101121.13;5053555;28;20049;-71
2021/01/27 01:35:27;;;;;;;10.60;5.10;;;;;;;4.74;71.49;101140.78;5019479;28;20048;-71
2021/01/27 01:37:54;;;;;;;11.13;4.78;;;;;;;4.54;71.81;101132.47;5053284;28;20143;-71
2021/01/27 01:40:34;;;;;;;12.15;5.20;;;;;;;4.25;74.21;101126.53;5036189;28;20060;-71
2021/01/27 01:43:26;;;;;;;8.82;5.25;;;;;;;4.40;74.09;101123.09;5035729;28;20045;-71
2021/01/27 01:45:58;;;;;;;9.57;5.57;;;;;;;4.33;74.61;101134.25;4972881;28;20150;-71
2021/01/27 01:52:53;;;;;;;11.00;4.30;;;;;;;4.44;74.79;101121.50;4953942;29;20535;-71
2021/01/27 01:55:21;;;;;;;12.85;4.65;;;;;;;4.36;75.82;101119.25;4937946;29;20047;-74
2021/01/27 01:57:51;;;;;;;10.85;4.65;;;;;;;4.30;75.78;101098.50;4953461;29;20051;-73
2021/01/27 02:00:19;;;;;;;9.15;5.10;;;;;;;4.33;75.23;101095.25;4953965;28;20055;-70
2021/01/27 02:02:46;;;;;;;7.60;3.92;;;;;;;4.33;75.45;101087.91;4952962;28;20051;-71
2021/01/27 02:05:26;;;;;;;12.52;4.72;;;;;;;4.31;76.15;101092.78;4953496;29;20573;-72
2021/01/27 02:07:57;;;;;;;7.97;4.53;;;;;;;4.33;75.79;101090.63;4937713;29;20063;-72
2021/01/27 02:10:26;;;;;;;10.45;4.63;;;;;;;4.33;76.34;101095.25;4953410;29;20530;-72
2021/01/27 02:13:21;;;;;;;8.90;4.30;;;;;;;4.18;76.72;101076.91;4952867;29;20054;-73
2021/01/27 02:16:08;;;;;;;7.88;4.43;;;;;;;4.44;76.12;101070.53;4954468;28;20063;-71
2021/01/27 02:23:16;;;;;;;7.35;4.25;;;;;;;4.22;76.62;101064.38;4968281;28;20057;-73
2021/01/27 02:26:02;;;;;;;10.90;4.60;;;;;;;4.09;76.96;101056.66;4953012;29;20051;-74
2021/01/27 02:28:51;;;;;;;10.77;5.10;;;;;;;3.99;77.12;101053.84;4937146;29;20055;-74
2021/01/27 02:31:37;;;;;;;9.93;4.93;;;;;;;4.12;76.59;101061.59;4953092;29;20066;-75
2021/01/27 02:38:32;;;;;;;8.07;4.35;;;;;;;4.27;75.86;101075.31;4953033;28;20055;-75
2021/01/27 02:41:16;;;;;;;10.70;4.68;;;;;;;4.26;75.95;101067.38;4937055;29;20058;-74
2021/01/27 02:43:47;;;;;;;8.82;4.25;;;;;;;4.26;75.40;101061.94;4936376;29;20051;-73
2021/01/27 02:46:27;;;;;;;9.05;4.25;;;;;;;4.30;75.14;101044.81;4937125;29;20806;-73
2021/01/27 02:53:31;;;;;;;9.32;4.22;;;;;;;4.33;74.36;101025.19;4952899;29;20043;-76
2021/01/27 02:56:19;;;;;;;8.10;4.18;;;;;;;4.20;74.54;101022.91;4955910;28;20045;-73
2021/01/27 02:58:57;;;;;;;10.25;4.57;;;;;;;4.17;75.33;101014.44;5015506;28;20050;-74
2021/01/27 03:01:43;;;;;;;10.20;4.13;;;;;;;4.28;74.74;101008.81;5014478;28;20052;-75
2021/01/27 03:08:49;;;;;;;7.57;3.70;;;;;;;4.19;74.33;101017.72;5014966;28;20053;-72
2021/01/27 03:11:20;;;;;;;10.02;3.72;;;;;;;4.49;73.96;101007.81;5032217;28;20061;-75
2021/01/27 03:13:48;;;;;;;8.60;4.25;;;;;;;4.51;73.48;100994.72;5014229;28;20061;-76
2021/01/27 03:16:25;;;;;;;7.25;3.75;;;;;;;4.43;73.48;100994.41;5031672;28;20057;-73
2021/01/27 03:23:33;;;;;;;6.78;3.65;;;;;;;4.52;73.18;100998.25;5032539;28;20292;-74
2021/01/27 03:26:14;;;;;;;9.45;3.80;;;;;;;4.33;73.40;100999.81;5031854;28;20073;-72
2021/01/27 03:28:51;;;;;;;7.75;3.65;;;;;;;4.35;73.80;101003.09;5014895;28;20053;-72
2021/01/27 03:31:18;;;;;;;9.40;4.32;;;;;;;4.43;73.90;100997.94;5014951;28;20050;-75
2021/01/27 03:33:50;;;;;;;10.35;3.85;;;;;;;4.43;73.85;100994.41;4998612;28;20053;-74
2021/01/27 03:40:43;;;;;;;9.60;4.13;;;;;;;4.43;73.63;100970.69;5032443;28;20046;-73
2021/01/27 03:43:18;;;;;;;11.88;4.28;;;;;;;4.55;73.69;100964.97;5014795;28;20068;-76
2021/01/27 03:45:50;;;;;;;9.35;3.90;;;;;;;4.54;73.37;100977.81;5014838;28;20052;-71
2021/01/27 03:48:23;;;;;;;9.05;4.25;;;;;;;4.46;73.70;100980.25;4996729;28;20496;-74
2021/01/27 03:50:54;;;;;;;7.70;4.00;;;;;;;4.51;73.84;100986.56;5015345;28;20056;-75
2021/01/27 03:53:25;;;;;;;9.63;4.20;;;;;;;4.60;73.58;100971.28;5034948;28;20049;-74
2021/01/27 03:56:08;;;;;;;10.60;3.85;;;;;;;4.66;73.86;100974.03;5018173;28;20049;-74
2021/01/27 03:58:37;;;;;;;11.70;4.13;;;;;;;4.85;73.04;100961.53;5052030;28;20068;-74
2021/01/27 04:01:12;;;;;;;5.90;3.60;;;;;;;4.69;73.58;100971.56;5034260;28;20515;-73
2021/01/27 04:03:40;;;;;;;7.75;3.80;;;;;;;4.52;74.11;100969.09;5017702;28;20064;-76
2021/01/27 04:06:07;;;;;;;8.73;3.90;;;;;;;4.54;74.29;100972.38;5052198;28;20060;-74
2021/01/27 04:08:34;;;;;;;9.85;3.95;;;;;;;4.63;74.20;100977.28;5052051;28;20053;-75
2021/01/27 04:11:04;;;;;;;10.13;4.30;;;;;;;5.10;73.49;100977.94;5035516;28;20053;-74
2021/01/27 04:13:31;;;;;;;8.45;4.35;;;;;;;4.84;73.83;100976.28;5051681;28;20056;-73
2021/01/27 04:15:59;;;;;;;9.10;4.10;;;;;;;4.95;73.44;100983.41;5051606;28;20071;-75
2021/01/27 04:18:29;;;;;;;10.95;4.32;;;;;;;4.75;74.11;100975.97;5034675;28;20056;-72
2021/01/27 04:20:57;;;;;;;8.55;4.40;;;;;;;4.80;74.58;100975.97;5050977;28;20061;-75
2021/01/27 04:23:24;;;;;;;8.00;3.88;;;;;;;4.75;74.66;100969.69;5051587;28;20064;-73
2021/01/27 04:25:52;;;;;;;7.93;4.03;;;;;;;4.72;75.18;100978.41;5053095;28;20045;-73
2021/01/27 04:28:19;;;;;;;8.23;3.83;;;;;;;4.84;74.88;100971.63;5055651;28;20060;-75
2021/01/27 04:30:46;;;;;;;9.20;4.47;;;;;;;4.80;74.83;100980.63;5055546;28;20037;-72
2021/01/27 04:33:13;;;;;;;12.55;5.00;;;;;;;4.79;75.24;100978.97;5054536;28;20049;-74
2021/01/27 04:35:41;;;;;;;10.73;4.97;;;;;;;4.56;75.83;100967.47;5055385;28;20048;-73
2021/01/27 04:38:09;;;;;;;8.60;4.60;;;;;;;4.63;76.42;100952.75;5020900;28;20049;-76
2021/01/27 04:40:44;;;;;;;10.38;4.70;;;;;;;4.75;75.91;100956.03;5052409;28;20049;-74
2021/01/27 04:43:30;;;;;;;11.13;4.90;;;;;;;4.62;76.76;100957.38;5054637;28;20056;-72
2021/01/27 04:46:07;;;;;;;8.98;4.55;;;;;;;4.67;76.88;100949.22;5038048;28;20060;-73
2021/01/27 04:48:55;;;;;;;9.43;4.88;;;;;;;4.50;77.52;100946.72;5036886;28;20063;-73
2021/01/27 04:51:34;;;;;;;8.80;4.35;;;;;;;4.54;78.19;100938.81;5036710;28;20057;-71
2021/01/27 04:54:23;;;;;;;9.48;4.60;;;;;;;4.60;78.29;100935.03;5037439;28;20037;-73
2021/01/27 04:57:00;;;;;;;7.50;4.95;;;;;;;4.63;77.58;100942.66;5054226;28;20053;-74
2021/01/27 04:59:39;;;;;;;8.82;4.72;;;;;;;4.61;78.09;100955.75;5037351;28;20140;-72
2021/01/27 05:02:52;;;;;;;14.40;4.80;;;;;;;4.48;78.65;100954.34;5037093;28;20053;-73
2021/01/27 05:09:46;;;;;;;11.30;4.40;;;;;;;4.79;77.49;100935.31;4974709;28;20081;-72
2021/01/27 05:12:15;;;;;;;8.75;4.20;;;;;;;4.72;77.38;100935.59;4957688;28;20054;-73
2021/01/27 05:15:01;;;;;;;8.90;4.43;;;;;;;4.66;77.92;100930.38;4974276;28;20175;-73
2021/01/27 05:17:51;;;;;;;7.33;4.07;;;;;;;4.59;78.60;100925.19;4955395;28;20042;-73
2021/01/27 05:24:45;;;;;;;8.05;4.32;;;;;;;4.48;79.82;100943.41;4974507;28;20046;-73
2021/01/27 05:27:16;;;;;;;8.57;4.28;;;;;;;4.53;79.56;100935.25;4958600;28;20058;-72
2021/01/27 05:29:51;;;;;;;8.50;4.05;;;;;;;4.52;80.07;100930.06;4958089;28;20451;-72
2021/01/27 05:32:20;;;;;;;7.68;4.05;;;;;;;4.66;79.49;100941.28;4973630;28;20053;-75
2021/01/27 05:39:28;;;;;;;8.45;4.50;;;;;;;4.80;78.50;100940.50;4973911;28;20294;-75
2021/01/27 05:42:05;;;;;;;10.63;4.80;;;;;;;4.65;79.39;100940.50;5034935;28;20056;-75
2021/01/27 05:44:32;;;;;;;7.25;3.83;;;;;;;4.92;78.57;100926.59;5052563;28;20124;-70
2021/01/27 05:47:24;;;;;;;9.38;4.22;;;;;;;4.68;78.63;100920.00;5053611;28;20496;-74
2021/01/27 05:49:52;;;;;;;7.50;4.18;;;;;;;4.72;79.01;100916.50;5053408;28;20048;-74
2021/01/27 05:52:23;;;;;;;6.40;3.67;;;;;;;4.90;78.43;100928.81;5053269;28;20052;-73
2021/01/27 05:54:51;;;;;;;7.35;3.63;;;;;;;4.88;78.94;100923.59;5036237;28;20097;-74
2021/01/27 05:57:26;;;;;;;9.10;3.67;;;;;;;5.11;77.97;100925.00;5053849;28;20088;-74
2021/01/27 06:00:21;;;;;;;8.32;3.80;;;;;;;4.92;78.85;100930.16;5036209;28;20053;-73
2021/01/27 06:02:49;;;;;;;6.70;3.60;;;;;;;5.04;78.56;100941.63;5053511;28;20065;-72
2021/01/27 06:05:31;;;;;;;7.93;3.70;;;;;;;4.92;79.16;100927.44;5019360;28;20049;-71
2021/01/27 06:08:20;;;;;;;7.18;3.83;;;;;;;5.04;78.99;100916.28;5020071;28;20056;-74
2021/01/27 06:10:53;;;;;;;6.53;3.72;;;;;;;5.08;79.06;100928.25;5022651;28;20053;-74
2021/01/27 06:13:26;;;;;;;10.15;3.90;;;;;;;5.06;78.97;100933.16;5054153;28;20051;-73
2021/01/27 06:15:54;;;;;;;5.90;3.38;;;;;;;4.97;79.00;100938.34;5035390;28;20124;-71
2021/01/27 06:18:22;;;;;;;6.32;3.38;;;;;;;5.09;78.94;100930.72;5035641;28;20053;-72
2021/01/27 06:21:35;;;;;;;8.15;3.70;;;;;;;5.09;78.70;100933.44;5052769;28;20053;-71
2021/01/27 06:24:16;;;;;;;6.65;3.40;;;;;;;5.01;79.68;100931.25;4953282;29;20521;-72
2021/01/27 06:27:04;;;;;;;9.07;3.70;;;;;;;5.11;79.20;100927.75;4952486;29;20055;-72
2021/01/27 06:29:59;;;;;;;10.10;4.15;;;;;;;4.94;80.63;100927.16;4936655;29;20155;-71
2021/01/27 06:32:49;;;;;;;7.93;3.70;;;;;;;5.05;80.59;100923.34;4953318;29;20062;-72
2021/01/27 06:39:50;;;;;;;6.20;3.40;;;;;;;5.08;80.02;100912.72;4933825;28;20047;-71
2021/01/27 06:42:28;;;;;;;6.30;3.70;;;;;;;5.01;80.14;100912.16;4933758;29;20099;-73
2021/01/27 06:45:41;;;;;;;6.07;3.58;;;;;;;4.87;81.13;100900.13;4917723;29;20062;-73
2021/01/27 06:48:42;;;;;;;6.43;4.00;;;;;;;4.91;81.39;100903.13;4858446;29;20073;-70
2021/01/27 06:51:37;;;;;;;8.68;4.80;;;;;;;4.92;81.71;100896.56;4842495;29;20057;-72
2021/01/27 06:54:13;;;;;;;9.75;5.95;;;;;;;4.96;82.38;100906.69;4864319;29;20048;-74
2021/01/27 06:57:04;;;;;;;7.97;4.85;;;;;;;5.00;82.18;100915.16;4895332;29;20064;-72
2021/01/27 06:59:47;;;;;;;12.05;6.88;;;;;;;5.09;81.70;100919.00;4896202;29;20064;-74
2021/01/27 07:02:43;;;;;;;8.75;5.00;;;;;;;4.94;82.31;100918.97;4864926;29;20056;-72
2021/01/27 07:09:50;;;;;;;8.15;4.32;;;;;;;4.94;82.11;100925.25;4895325;29;20079;-71
2021/01/27 07:12:39;;;;;;;8.70;4.78;;;;;;;5.12;81.91;100923.91;4922601;29;20151;-72
2021/01/27 07:15:08;;;;;;;;;;;;;;;5.30;80.73;100917.91;4937115;29;20058;-71
2021/01/27 07:18:15;;;;;;;8.55;4.30;;;;;;;5.33;80.43;100918.19;4951593;29;19926;-72
2021/01/27 07:24:40;;;;;;;7.90;4.25;;;;;;;5.28;80.52;100923.63;4968645;28;20056;-70
2021/01/27 07:27:19;;;;;;;6.70;4.00;;;;;;;5.40;79.90;100918.72;5018766;28;20052;-69
2021/01/27 07:29:58;;;;;;;7.88;4.00;;;;;;;5.31;80.43;100922.25;5052866;28;20053;-71
2021/01/27 07:32:31;;;;;;;6.55;4.15;;;;;;;5.42;80.15;100929.38;5035319;28;20114;-71
2021/01/27 07:34:57;;;;;;;;;;;;;;;5.37;80.50;100941.09;5053650;28;20053;-71
2021/01/27 07:37:33;;;;;;;9.25;5.32;;;;;;;5.58;80.08;100953.66;5052302;28;19920;-72
2021/01/27 07:40:09;;;;;;;8.15;4.63;;;;;;;5.72;79.03;100967.56;5020283;28;20063;-70
2021/01/27 07:43:03;;;;;;;7.78;4.95;;;;;;;5.86;79.30;100974.16;5034077;28;20052;-73
2021/01/27 07:45:38;;;;;;;17.70;5.22;;;;;;;5.97;79.09;100967.56;5034664;28;20406;-72
2021/01/27 07:48:20;;;;;;;8.75;5.80;;;;;;;5.70;79.32;100970.59;5018239;28;20044;-69
2021/01/27 07:55:22;;;;;;;11.73;6.30;;;;;;;5.69;79.69;100973.59;5047695;28;20508;-70
2021/01/27 07:58:04;;;;;;;9.85;6.03;;;;;;;5.54;80.41;100965.41;5031769;28;20049;-69
2021/01/27 08:00:33;;;;;;;11.20;6.10;;;;;;;5.46;80.74;100974.97;5014146;28;20488;-72
2021/01/27 08:03:22;;;;;;;10.43;6.55;;;;;;;5.59;80.75;100968.97;5017646;28;20512;-69
2021/01/27 08:10:16;;;;;;;9.10;5.72;;;;;;;5.47;81.03;100951.22;5036039;28;20052;-72
2021/01/27 08:12:59;;;;;;;12.75;7.30;;;;;;;5.70;80.51;100947.94;5019266;28;20072;-70
2021/01/27 08:15:26;;;;;;;10.35;6.57;;;;;;;5.64;80.59;100943.53;5018653;28;20056;-69
2021/01/27 08:17:55;;;;;;;10.02;6.65;;;;;;;5.60;81.28;100945.19;5035957;28;20049;-73
2021/01/27 08:24:49;;;;;;;15.20;6.78;;;;;;;5.77;80.51;100944.91;5035433;28;20037;-73
2021/01/27 08:27:17;;;;;;;12.43;6.70;;;;;;;5.83;80.32;100941.91;5034556;28;20054;-71
2021/01/27 08:29:56;;;;;;;12.82;7.35;;;;;;;5.81;80.40;100933.13;5035337;28;20049;-71
2021/01/27 08:32:25;;;;;;;13.10;7.28;;;;;;;5.87;80.91;100932.06;5016739;28;20140;-72
2021/01/27 08:34:58;;;;;;;13.45;7.78;;;;;;;5.97;80.15;100936.66;5035516;28;20048;-71
2021/01/27 08:42:18;;;;;;;13.13;7.47;;;;;;;6.10;79.65;100958.78;5034279;28;20481;-69
2021/01/27 08:44:45;;;;;;;12.07;7.15;;;;;;;6.18;79.60;100969.16;5017120;28;20060;-70
2021/01/27 08:47:19;;;;;;;17.15;6.80;;;;;;;5.88;80.21;100966.50;5017528;28;20049;-70
2021/01/27 08:49:57;;;;;;;16.30;8.00;;;;;;;5.91;80.64;100960.47;5035122;28;20065;-69
2021/01/27 08:52:38;;;;;;;12.95;7.57;;;;;;;6.06;80.39;100956.88;5033181;28;20153;-69
2021/01/27 08:55:32;;;;;;;12.68;7.25;;;;;;;5.98;80.70;100961.00;5017262;28;20050;-70
2021/01/27 08:58:22;;;;;;;14.48;8.63;;;;;;;6.07;80.37;100959.34;5017072;28;20045;-69
2021/01/27 09:00:49;;;;;;;;;;;;;;;6.09;80.41;100948.94;5017814;28;20052;-69
2021/01/27 09:03:42;;;;;;;11.90;7.50;;;;;;;6.04;80.82;100932.56;5034894;28;19921;-69
2021/01/27 09:10:34;;;;;;;12.60;8.10;;;;;;;6.08;81.56;100952.78;5034868;28;20508;-71
2021/01/27 09:13:21;;;;;;;17.83;8.10;;;;;;;6.01;81.56;100949.53;5032624;28;20064;-71
2021/01/27 09:16:05;;;;;;;14.50;9.15;;;;;;;6.23;81.28;100957.38;5036011;28;20053;-71
2021/01/27 09:18:36;;;;;;;15.98;8.77;;;;;;;6.19;80.78;100961.78;5018057;28;20053;-70
2021/01/27 09:25:49;;;;;;;13.45;7.72;;;;;;;6.31;81.26;100981.44;5034112;28;20473;-73
2021/01/27 09:28:37;;;;;;;15.35;8.45;;;;;;;6.42;80.51;100991.22;5019697;28;20508;-73
2021/01/27 09:31:14;;;;;;;15.93;8.27;;;;;;;6.51;80.42;100998.59;5034429;28;20076;-75
2021/01/27 09:33:42;;;;;;;13.63;8.48;;;;;;;6.66;79.85;101003.16;5016820;28;20401;-74
2021/01/27 09:36:24;;;;;;;12.80;8.10;;;;;;;6.52;80.58;100994.75;5016049;28;20053;-73
2021/01/27 09:38:56;;;;;;;15.70;9.23;;;;;;;6.29;81.66;101000.88;5010516;28;20061;-73
2021/01/27 09:41:28;;;;;;;13.90;8.27;;;;;;;6.48;81.39;100990.94;5027162;28;20409;-71
2021/01/27 09:43:57;;;;;;;14.50;8.82;;;;;;;6.65;81.08;100994.16;5015938;28;20060;-72
2021/01/27 09:46:31;;;;;;;16.42;9.05;;;;;;;6.65;80.52;100996.88;5016621;28;20052;-72
2021/01/27 09:49:04;;;;;;;17.15;9.40;;;;;;;6.87;80.60;100998.44;5016378;28;20049;-72
2021/01/27 09:51:31;;;;;;;15.27;9.18;;;;;;;7.01;80.04;100999.44;5033957;28;20060;-74
2021/01/27 09:54:00;;;;;;;19.05;8.90;;;;;;;7.25;79.40;101009.44;5023761;28;20058;-72
2021/01/27 09:56:34;;;;;;;16.73;9.48;;;;;;;7.13;79.42;101019.09;5031315;28;20056;-72
2021/01/27 09:59:01;;;;;;;15.57;9.05;;;;;;;7.44;79.83;101032.31;5031336;28;20061;-74
2021/01/27 10:01:33;;;;;;;17.88;9.13;;;;;;;7.60;78.88;101035.75;5022123;28;20064;-73
2021/01/27 10:04:49;;;;;;;15.70;8.20;;;;;;;7.58;79.64;101021.50;5032888;28;20049;-71
2021/01/27 10:07:36;;;;;;;16.88;8.90;;;;;;;7.72;79.26;101020.53;5011138;28;20050;-75
2021/01/27 10:10:13;;;;;;;16.27;9.25;;;;;;;7.81;78.59;101024.31;4995588;28;20050;-74
2021/01/27 10:12:59;;;;;;;16.90;8.90;;;;;;;7.93;78.59;101029.44;5012869;28;20560;-75
2021/01/27 10:15:33;;;;;;;14.52;8.65;;;;;;;7.80;79.28;101016.38;4995934;28;20057;-72
2021/01/27 10:18:07;;;;;;;17.73;9.02;;;;;;;7.94;79.21;101015.44;4980057;28;20065;-74
2021/01/27 10:20:36;;;;;;;16.42;8.75;;;;;;;8.18;78.29;101011.88;4995125;28;20060;-75
2021/01/27 10:23:07;;;;;;;14.20;8.88;;;;;;;8.15;79.00;101013.31;4994457;28;20053;-76
2021/01/27 10:25:36;;;;;;;16.42;8.75;;;;;;;8.27;78.61;101038.44;4995587;28;20402;-74
2021/01/27 10:28:06;;;;;;;15.35;8.65;;;;;;;8.03;78.74;101032.09;5014329;28;20042;-74
2021/01/27 10:30:49;;;;;;;16.10;8.80;;;;;;;7.94;79.88;101028.31;5011625;28;20550;-75
2021/01/27 10:33:38;;;;;;;16.27;8.48;;;;;;;7.99;80.27;101020.88;5010876;28;20069;-75
2021/01/27 10:40:29;;;;;;;18.58;9.73;;;;;;;7.94;80.71;101034.63;5011026;28;20042;-73
2021/01/27 10:42:57;;;;;;;16.33;9.82;;;;;;;8.17;80.40;101043.19;5014174;28;20064;-71
2021/01/27 10:45:27;;;;;;;17.55;9.80;;;;;;;8.11;80.23;101052.59;5015212;28;20049;-75
2021/01/27 10:47:58;;;;;;;19.52;10.63;;;;;;;7.99;80.33;101061.19;5033060;28;20056;-77
2021/01/27 10:50:27;;;;;;;19.10;11.00;;;;;;;8.12;80.38;101054.22;5031235;28;20054;-73
2021/01/27 10:57:35;;;;;;;19.15;10.20;;;;;;;8.43;79.25;101075.63;5033197;28;20049;-73
2021/01/27 11:00:09;;;;;;;19.25;9.63;;;;;;;8.27;80.16;101073.28;5032026;28;20053;-76
2021/01/27 11:02:36;;;;;;;19.83;10.15;;;;;;;8.50;79.65;101072.50;5032347;28;20053;-75
2021/01/27 11:05:03;;;;;;;23.17;13.98;;;;;;;8.58;78.82;101074.63;5031487;28;20053;-77
2021/01/27 11:11:54;;;;;;;16.83;9.73;;;;;;;8.52;79.20;101071.13;5032186;28;20374;-75
2021/01/27 11:14:24;;;;;;;;;;;;;;;8.31;80.11;101063.38;5033341;28;20044;-71
2021/01/27 11:16:51;;;;;;;18.98;10.07;;;;;;;8.50;80.07;101069.78;5032088;28;19928;-75
2021/01/27 11:19:18;;;;;;;21.10;12.25;;;;;;;8.45;79.78;101064.34;5032001;28;20064;-77
2021/01/27 11:21:45;;;;;;;18.10;10.73;;;;;;;8.49;79.75;101059.91;5014548;28;20045;-79
2021/01/27 11:24:12;;;;;;;15.43;9.85;;;;;;;8.60;79.94;101062.25;5031695;28;20060;-77
2021/01/27 11:26:39;;;;;;;20.00;9.93;;;;;;;8.68;79.52;101072.56;5032472;28;20046;-77
2021/01/27 11:29:06;;;;;;;18.33;9.43;;;;;;;8.46;80.21;101063.22;5014823;28;20062;-75
2021/01/27 11:31:34;;;;;;;15.07;9.65;;;;;;;8.29;81.58;101073.84;5031271;28;20473;-77
2021/01/27 11:34:02;;;;;;;20.70;10.27;;;;;;;8.49;81.12;101073.63;5014636;28;20497;-76
2021/01/27 11:36:30;;;;;;;20.65;10.70;;;;;;;8.60;80.47;101078.72;5034319;28;20050;-78
2021/01/27 11:43:28;;;;;;;17.80;9.55;;;;;;;8.67;80.12;101079.19;4974760;28;20063;-74
2021/01/27 11:45:56;;;;;;;19.67;11.23;;;;;;;8.81;79.63;101080.13;4974459;28;20050;-75
2021/01/27 11:48:41;;;;;;;17.58;10.02;;;;;;;8.82;79.76;101081.75;4974225;28;20059;-73
2021/01/27 11:51:09;;;;;;;17.50;9.68;;;;;;;8.75;80.40;101085.97;4958820;28;20078;-73
2021/01/27 11:58:04;;;;;;;16.13;8.63;;;;;;;8.70;80.67;101084.09;5027384;28;20053;-78
2021/01/27 12:00:31;;;;;;;15.10;9.25;;;;;;;8.59;81.38;101079.84;5041471;28;20053;-77
2021/01/27 12:02:58;;;;;;;13.68;8.88;;;;;;;8.57;81.72;101078.47;5026046;28;20053;-78
2021/01/27 12:05:25;;;;;;;15.15;8.63;;;;;;;8.73;81.23;101075.28;5043390;28;20049;-77
2021/01/27 12:12:29;;;;;;;16.73;8.98;;;;;;;8.98;80.90;101069.47;5035358;28;20042;-77
2021/01/27 12:14:56;;;;;;;14.45;9.38;;;;;;;9.13;80.22;101084.13;5017340;28;20386;-77
2021/01/27 12:17:23;;;;;;;16.02;9.73;;;;;;;8.92;80.54;101078.91;5035281;28;20076;-78
2021/01/27 12:19:50;;;;;;;22.60;11.30;;;;;;;8.99;80.71;101078.53;5034708;28;20053;-75
2021/01/27 12:22:17;;;;;;;18.33;10.02;;;;;;;8.87;81.35;101081.69;5035963;28;20485;-78
2021/01/27 12:24:48;;;;;;;16.05;9.18;;;;;;;9.04;80.66;101072.97;5018439;28;20068;-77
2021/01/27 12:27:15;;;;;;;24.67;14.55;;;;;;;8.97;80.46;101069.75;5035465;28;20405;-79
2021/01/27 12:29:42;;;;;;;19.15;11.35;;;;;;;8.98;80.77;101061.22;5033733;28;20068;-77
2021/01/27 12:32:12;;;;;;;14.95;9.05;;;;;;;9.01;80.64;101059.81;5018316;28;20181;-78
2021/01/27 12:34:40;;;;;;;16.60;10.10;;;;;;;9.01;80.47;101060.63;5035786;28;20048;-81
2021/01/27 12:37:07;;;;;;;16.75;9.57;;;;;;;9.19;80.22;101055.47;5034827;28;20499;-78
2021/01/27 12:39:37;;;;;;;;;;;;;;;9.08;80.35;101054.78;5035907;28;20049;-79
2021/01/27 12:42:06;;;;;;;16.50;9.38;;;;;;;9.15;80.78;101059.91;5036240;28;19921;-77
2021/01/27 12:44:45;;;;;;;17.45;10.52;;;;;;;9.25;79.65;101060.59;5019394;28;20046;-77
2021/01/27 12:47:13;;;;;;;18.02;9.75;;;;;;;9.19;79.92;101055.47;5036682;28;20065;-77
2021/01/27 12:49:41;;;;;;;19.83;9.90;;;;;;;9.11;80.15;101056.94;5036068;28;20049;-73
2021/01/27 12:52:09;;;;;;;16.73;10.13;;;;;;;9.00;80.46;101053.50;5034462;28;20057;-78
2021/01/27 12:54:35;;;;;;;18.25;10.70;;;;;;;8.77;81.34;101054.34;5019237;28;20049;-75
2021/01/27 12:57:03;;;;;;;18.48;9.80;;;;;;;8.90;81.37;101045.41;5034511;28;20057;-79
2021/01/27 12:59:30;;;;;;;17.63;10.35;;;;;;;8.84;81.39;101052.06;5000901;28;20057;-74
2021/01/27 13:01:57;;;;;;;26.30;15.23;;;;;;;9.11;80.86;101048.69;5033747;28;20046;-77
2021/01/27 13:04:24;;;;;;;20.73;12.27;;;;;;;9.22;80.03;101052.13;5035631;28;20393;-78
2021/01/27 13:06:51;;;;;;;20.75;11.38;;;;;;;9.19;80.10;101039.78;5033580;28;20056;-76
2021/01/27 13:13:46;;;;;;;23.40;14.45;;;;;;;9.13;80.71;101036.28;5034735;28;20033;-75
2021/01/27 13:16:13;;;;;;;21.20;14.25;;;;;;;9.07;81.19;101025.66;5032586;28;20069;-77
2021/01/27 13:18:40;;;;;;;20.73;9.57;;;;;;;9.07;81.14;101025.66;5033885;28;20061;-80
2021/01/27 13:21:08;;;;;;;16.85;10.05;;;;;;;8.96;81.74;101022.22;5034585;28;20076;-76
2021/01/27 13:28:04;;;;;;;18.20;10.30;;;;;;;9.21;80.74;101021.06;5034221;28;20512;-76
2021/01/27 13:30:36;;;;;;;21.42;10.60;;;;;;;9.20;80.62;101018.63;5033426;28;20069;-75
2021/01/27 13:33:05;;;;;;;19.65;10.75;;;;;;;9.20;80.51;101019.44;5034185;28;20052;-77
2021/01/27 13:35:32;;;;;;;18.23;10.37;;;;;;;9.02;81.55;101017.50;5035731;28;20049;-73
2021/01/27 13:42:27;;;;;;;21.08;10.85;;;;;;;9.19;81.52;101008.75;5035790;28;20056;-73
2021/01/27 13:44:54;;;;;;;17.35;10.35;;;;;;;9.31;81.31;101020.13;5037070;28;20083;-73
2021/01/27 13:47:21;;;;;;;23.75;11.18;;;;;;;9.15;81.67;101010.44;5033966;28;20052;-73
2021/01/27 13:49:51;;;;;;;18.88;10.45;;;;;;;9.11;81.74;101004.72;5034188;28;20053;-72
2021/01/27 13:52:20;;;;;;;22.38;11.43;;;;;;;9.09;81.88;101004.22;5032636;28;20045;-71
2021/01/27 13:54:46;;;;;;;23.63;13.55;;;;;;;9.28;81.09;101006.94;5032203;28;20049;-72
2021/01/27 13:57:13;;;;;;;22.60;12.57;;;;;;;9.21;81.85;101010.06;5046137;28;20160;-71
2021/01/27 13:59:46;;;;;;;19.95;11.88;;;;;;;8.94;82.62;101001.69;5052655;28;20346;-72
2021/01/27 14:02:13;;;;;;;23.08;12.55;;;;;;;8.86;83.01;101005.88;5053286;28;20053;-72
2021/01/27 14:04:41;;;;;;;21.65;13.30;;;;;;;8.81;83.24;101016.13;5035655;28;20049;-72
2021/01/27 14:07:08;;;;;;;24.60;12.13;;;;;;;8.79;83.16;101015.59;5053663;28;20159;-74